Time;durP1;ratioP1;P1;durP2;ratioP2;P2;SDS_P1;SDS_P2;PMS_P1;PMS_P2;Temp;Humidity;BMP_temperature;BMP_pressure;BME280_temperature;BME280_humidity;BME280_pressure;Samples;Min_cycle;Max_cycle;Signal;HPM_P1;HPM_P2
2021/06/18 00:02:03;;;;;;;4.03;3.73;;;25.00;25.00;;;;;;10386538;28;20254;-79
2021/06/18 00:07:06;;;;;;;3.90;3.70;;;25.00;24.50;;;;;;10393930;28;20237;-79
2021/06/18 00:12:12;;;;;;;4.40;4.00;;;24.90;24.70;;;;;;10389291;28;20233;-79
2021/06/18 00:17:16;;;;;;;4.30;3.90;;;24.90;25.30;;;;;;10391363;28;20235;-79
2021/06/18 00:22:19;;;;;;;4.47;4.07;;;24.80;24.90;;;;;;10390806;28;20261;-79
2021/06/18 00:27:23;;;;;;;4.40;4.00;;;24.80;25.00;;;;;;10392393;28;20233;-79
2021/06/18 00:32:27;;;;;;;4.30;4.00;;;24.60;25.40;;;;;;10383807;28;20229;-79
2021/06/18 00:37:30;;;;;;;4.27;3.97;;;24.40;25.10;;;;;;10394044;28;20234;-79
2021/06/18 00:42:35;;;;;;;4.00;3.70;;;24.30;25.30;;;;;;10396068;28;20233;-79
2021/06/18 00:47:46;;;;;;;4.60;4.30;;;24.10;25.80;;;;;;10400473;28;20580;-79
2021/06/18 00:52:49;;;;;;;5.17;4.37;;;23.90;26.40;;;;;;10399947;28;20776;-79
2021/06/18 00:57:55;;;;;;;5.03;4.63;;;23.80;26.10;;;;;;10401749;28;20631;-79
2021/06/18 01:02:58;;;;;;;4.90;4.13;;;23.60;27.00;;;;;;10393033;28;20397;-79
2021/06/18 01:08:11;;;;;;;4.20;3.90;;;23.40;26.40;;;;;;10401041;28;20230;-78
2021/06/18 01:13:35;;;;;;;4.83;4.30;;;23.20;27.50;;;;;;10394916;28;20245;-78
2021/06/18 01:18:45;;;;;;;4.80;4.40;;;23.10;27.40;;;;;;10397890;28;20233;-79
2021/06/18 01:24:00;;;;;;;4.57;4.27;;;23.00;27.60;;;;;;10397478;28;20221;-79
2021/06/18 01:29:06;;;;;;;3.97;3.77;;;22.80;28.20;;;;;;10399723;28;20587;-78
2021/06/18 01:34:13;;;;;;;4.43;4.03;;;22.70;27.80;;;;;;10389444;28;20240;-78
2021/06/18 01:39:17;;;;;;;4.07;3.53;;;22.60;28.20;;;;;;10396946;28;20229;-78
2021/06/18 01:44:23;;;;;;;5.00;4.50;;;22.60;27.70;;;;;;10392366;28;20233;-79
2021/06/18 01:49:28;;;;;;;3.83;3.53;;;22.60;28.10;;;;;;10393989;28;20234;-78
2021/06/18 01:54:33;;;;;;;4.07;3.80;;;22.70;27.40;;;;;;10388916;28;20234;-79
2021/06/18 01:59:39;;;;;;;5.27;3.87;;;22.70;27.50;;;;;;10391536;28;20226;-78
2021/06/18 02:04:42;;;;;;;4.57;4.17;;;22.70;28.00;;;;;;10399907;28;20233;-78
2021/06/18 02:09:47;;;;;;;4.30;3.90;;;22.70;27.50;;;;;;10392420;28;20701;-78
2021/06/18 02:14:53;;;;;;;4.70;4.30;;;22.70;27.90;;;;;;10396555;28;20229;-79
2021/06/18 02:19:57;;;;;;;4.60;4.20;;;22.70;28.30;;;;;;10395233;28;20857;-78
2021/06/18 02:25:02;;;;;;;5.33;4.33;;;22.70;27.90;;;;;;10394020;28;20244;-79
2021/06/18 02:30:09;;;;;;;4.60;4.30;;;22.70;27.80;;;;;;10393310;28;20230;-78
2021/06/18 02:35:13;;;;;;;4.80;4.37;;;22.70;28.80;;;;;;10395081;28;20244;-78
2021/06/18 02:40:18;;;;;;;4.40;4.10;;;22.60;27.90;;;;;;10388460;28;20226;-78
2021/06/18 02:45:22;;;;;;;4.97;4.27;;;22.50;28.10;;;;;;10396152;28;21867;-78
2021/06/18 02:50:37;;;;;;;4.77;4.37;;;22.40;28.50;;;;;;10390492;28;20229;-78
2021/06/18 02:55:45;;;;;;;4.80;4.40;;;22.20;29.10;;;;;;10393348;28;20238;-79
2021/06/18 03:00:50;;;;;;;5.50;4.57;;;22.00;29.30;;;;;;10391738;28;20233;-78
2021/06/18 03:05:59;;;;;;;4.53;4.13;;;21.80;29.20;;;;;;10395580;28;20234;-78
2021/06/18 03:11:03;;;;;;;4.53;4.20;;;21.60;29.30;;;;;;10385488;28;20229;-78
2021/06/18 03:16:09;;;;;;;4.90;4.50;;;21.60;29.10;;;;;;10385859;28;20260;-78
2021/06/18 03:21:13;;;;;;;5.03;4.53;;;21.50;29.70;;;;;;10388286;28;20230;-78
2021/06/18 03:26:18;;;;;;;5.03;4.53;;;21.40;29.10;;;;;;10389619;28;20225;-78
2021/06/18 03:31:24;;;;;;;4.83;4.43;;;21.30;29.50;;;;;;10397636;28;20747;-78
2021/06/18 03:36:29;;;;;;;5.23;4.73;;;21.20;30.20;;;;;;10386733;28;20280;-78
2021/06/18 03:41:33;;;;;;;5.00;4.20;;;21.10;29.70;;;;;;10396058;28;20729;-78
2021/06/18 03:46:39;;;;;;;4.43;4.13;;;21.10;29.60;;;;;;10391276;28;20217;-78
2021/06/18 03:51:42;;;;;;;6.03;4.40;;;21.10;30.50;;;;;;10397148;28;20230;-78
2021/06/18 03:56:48;;;;;;;4.83;4.40;;;21.10;30.00;;;;;;10397954;28;20615;-78
2021/06/18 04:01:55;;;;;;;5.23;4.77;;;21.00;30.10;;;;;;10392580;28;20226;-78
2021/06/18 04:07:00;;;;;;;5.73;4.50;;;21.10;30.90;;;;;;10390128;28;20264;-79
2021/06/18 04:12:05;;;;;;;5.20;4.67;;;21.10;30.50;;;;;;10401438;28;20226;-77
2021/06/18 04:17:10;;;;;;;5.33;4.70;;;21.10;30.50;;;;;;10400356;28;20233;-78
2021/06/18 04:22:20;;;;;;;6.50;5.20;;;21.20;31.10;;;;;;10395369;28;20225;-77
2021/06/18 04:27:23;;;;;;;5.00;4.60;;;21.20;31.60;;;;;;10396824;28;20293;-78
2021/06/18 04:32:28;;;;;;;8.20;5.73;;;21.30;30.50;;;;;;10391753;28;20241;-80
2021/06/18 04:37:31;;;;;;;6.70;6.07;;;21.30;31.30;;;;;;10390623;28;20250;-79
2021/06/18 04:42:34;;;;;;;6.27;5.67;;;21.40;31.00;;;;;;10400585;28;20238;-78
2021/06/18 04:47:39;;;;;;;5.53;5.13;;;21.30;30.90;;;;;;10392678;28;20690;-78
2021/06/18 04:52:43;;;;;;;5.60;5.17;;;21.40;31.80;;;;;;10397244;28;20230;-78
2021/06/18 04:57:48;;;;;;;7.03;6.00;;;21.40;31.30;;;;;;10395185;28;20619;-78
2021/06/18 05:02:53;;;;;;;5.93;5.43;;;21.50;32.10;;;;;;10393731;28;20238;-79
2021/06/18 05:07:57;;;;;;;7.47;5.43;;;21.60;32.30;;;;;;10399876;28;20222;-79
2021/06/18 05:13:00;;;;;;;5.93;5.43;;;21.70;32.30;;;;;;10393184;28;20325;-79
2021/06/18 05:18:04;;;;;;;6.60;5.80;;;21.80;32.10;;;;;;10388049;28;20292;-79
2021/06/18 05:23:09;;;;;;;6.57;6.07;;;22.00;33.10;;;;;;10388641;28;20225;-79
2021/06/18 05:28:12;;;;;;;6.57;6.07;;;22.10;32.60;;;;;;10397088;28;20226;-80
2021/06/18 05:33:17;;;;;;;6.83;6.33;;;22.30;32.60;;;;;;10398241;28;20234;-79
2021/06/18 05:38:20;;;;;;;6.73;6.23;;;22.50;33.20;;;;;;10397653;28;20819;-80
2021/06/18 05:43:23;;;;;;;6.63;6.13;;;22.70;32.70;;;;;;10394628;28;20252;-79
2021/06/18 05:48:28;;;;;;;6.93;6.27;;;23.00;32.80;;;;;;10396893;28;20236;-80
2021/06/18 05:53:31;;;;;;;7.43;6.83;;;23.20;33.00;;;;;;10387970;28;20789;-77
2021/06/18 05:58:34;;;;;;;6.90;6.40;;;23.40;32.70;;;;;;10395024;28;20442;-83
2021/06/18 06:03:40;;;;;;;7.47;6.80;;;23.60;32.70;;;;;;10388297;28;20309;-81
2021/06/18 06:08:43;;;;;;;6.87;6.27;;;23.80;33.20;;;;;;10395077;28;20236;-81
2021/06/18 06:13:46;;;;;;;6.10;5.57;;;24.00;32.60;;;;;;10390815;28;20230;-82
2021/06/18 06:18:51;;;;;;;6.20;5.70;;;24.10;32.50;;;;;;10391560;28;20234;-77
2021/06/18 06:23:54;;;;;;;5.43;4.97;;;24.30;32.40;;;;;;10402375;28;20236;-77
2021/06/18 06:28:57;;;;;;;5.80;5.40;;;24.50;31.80;;;;;;10395157;28;20313;-81
2021/06/18 06:34:02;;;;;;;5.70;5.30;;;24.80;31.70;;;;;;10391709;28;20237;-81
2021/06/18 06:39:05;;;;;;;5.13;4.83;;;25.00;31.90;;;;;;10387614;28;20236;-82
2021/06/18 06:44:09;;;;;;;5.43;4.93;;;25.20;31.70;;;;;;10389222;28;20252;-82
2021/06/18 06:49:13;;;;;;;6.37;5.77;;;25.40;31.60;;;;;;10391776;28;20284;-81
2021/06/18 06:54:16;;;;;;;5.83;5.33;;;25.60;31.40;;;;;;10394532;28;20233;-81
2021/06/18 06:59:20;;;;;;;6.20;5.70;;;25.80;31.30;;;;;;10392015;28;20248;-82
2021/06/18 07:04:25;;;;;;;6.37;5.87;;;26.10;31.20;;;;;;10396211;28;20606;-82
2021/06/18 07:09:28;;;;;;;6.77;6.20;;;26.30;31.30;;;;;;10394273;28;20236;-82
2021/06/18 07:14:31;;;;;;;6.50;6.00;;;26.50;31.10;;;;;;10395071;28;20230;-82
2021/06/18 07:19:36;;;;;;;6.40;6.00;;;26.60;30.90;;;;;;10388497;28;20230;-82
2021/06/18 07:24:39;;;;;;;6.93;6.23;;;26.90;31.40;;;;;;10395989;28;20356;-82
2021/06/18 07:29:44;;;;;;;6.87;6.20;;;27.00;30.80;;;;;;10391118;28;20260;-82
2021/06/18 07:34:48;;;;;;;6.87;6.27;;;27.30;30.90;;;;;;10378072;28;20898;-73
2021/06/18 07:39:51;;;;;;;6.33;5.83;;;27.40;30.50;;;;;;10382162;28;20904;-73
2021/06/18 07:45:14;;;;;;;6.30;5.80;;;27.60;30.00;;;;;;10382324;28;20226;-73
2021/06/18 07:50:20;;;;;;;7.07;5.60;;;27.80;30.10;;;;;;10373850;28;20757;-73
2021/06/18 07:55:24;;;;;;;6.57;6.03;;;28.00;30.20;;;;;;10376484;28;20237;-73
2021/06/18 08:00:28;;;;;;;6.00;5.60;;;28.20;30.30;;;;;;10376467;28;20325;-73
2021/06/18 08:05:32;;;;;;;5.57;5.13;;;28.40;30.20;;;;;;10382649;28;20226;-73
2021/06/18 08:10:36;;;;;;;5.40;4.90;;;28.60;29.90;;;;;;10395754;28;20225;-77
2021/06/18 08:15:39;;;;;;;5.63;5.23;;;28.90;29.80;;;;;;10398163;28;20233;-76
2021/06/18 08:20:44;;;;;;;6.10;5.60;;;29.10;29.60;;;;;;10388304;28;20702;-77
2021/06/18 08:25:50;;;;;;;5.13;4.73;;;29.30;28.80;;;;;;10389104;28;20226;-77
2021/06/18 08:30:53;;;;;;;5.50;5.10;;;29.60;28.80;;;;;;10397062;28;20237;-76
2021/06/18 08:35:58;;;;;;;5.70;5.30;;;29.80;28.40;;;;;;10393209;28;20234;-76
2021/06/18 08:41:03;;;;;;;6.20;5.70;;;30.10;28.20;;;;;;10394966;28;20575;-76
2021/06/18 08:46:07;;;;;;;5.83;5.43;;;30.30;28.10;;;;;;10393852;28;20229;-76
2021/06/18 08:51:12;;;;;;;5.80;5.40;;;30.50;27.90;;;;;;10387267;28;20218;-76
2021/06/18 08:56:15;;;;;;;5.70;5.30;;;30.80;27.70;;;;;;10385021;28;20236;-75
2021/06/18 09:01:18;;;;;;;5.90;5.50;;;31.00;27.60;;;;;;10396821;28;20225;-75
2021/06/18 09:06:31;;;;;;;6.80;6.03;;;31.30;27.10;;;;;;10395980;28;20249;-75
2021/06/18 09:11:38;;;;;;;5.63;5.23;;;31.40;26.60;;;;;;10389578;28;20219;-76
2021/06/18 09:16:42;;;;;;;5.67;5.27;;;31.50;26.30;;;;;;10390612;28;20226;-75
2021/06/18 09:21:57;;;;;;;6.00;5.50;;;31.70;26.70;;;;;;10402575;28;20252;-76
2021/06/18 09:27:01;;;;;;;5.43;5.03;;;31.80;26.00;;;;;;10393562;28;21167;-75
2021/06/18 09:32:06;;;;;;;5.67;5.33;;;32.00;26.50;;;;;;10391917;28;20235;-75
2021/06/18 09:37:21;;;;;;;5.50;5.10;;;32.20;26.00;;;;;;10405563;28;20612;-75
2021/06/18 09:42:24;;;;;;;5.47;5.07;;;32.40;25.40;;;;;;10390204;28;20244;-76
2021/06/18 09:47:28;;;;;;;5.77;5.27;;;32.70;25.10;;;;;;10386399;28;20227;-75
2021/06/18 09:52:33;;;;;;;5.57;5.17;;;33.00;25.00;;;;;;10401783;28;20236;-75
2021/06/18 09:57:39;;;;;;;5.80;5.40;;;33.20;24.40;;;;;;10389412;28;20321;-75
2021/06/18 10:02:44;;;;;;;5.93;5.43;;;33.30;24.20;;;;;;10388147;28;20313;-75
2021/06/18 10:07:51;;;;;;;5.47;5.10;;;33.60;24.20;;;;;;10377633;28;20233;-74
2021/06/18 10:12:56;;;;;;;5.60;5.20;;;33.90;23.60;;;;;;10383650;28;20241;-75
2021/06/18 10:18:00;;;;;;;6.00;5.50;;;34.10;23.40;;;;;;10383354;28;20328;-75
2021/06/18 10:23:10;;;;;;;5.30;4.90;;;34.20;23.30;;;;;;10381128;28;20240;-75
2021/06/18 10:28:19;;;;;;;5.83;5.40;;;34.40;22.90;;;;;;10383639;28;20232;-73
2021/06/18 10:33:35;;;;;;;5.80;5.30;;;34.40;22.10;;;;;;10379168;28;20268;-73
2021/06/18 10:38:42;;;;;;;5.63;5.23;;;34.50;22.20;;;;;;10379710;28;20614;-73
2021/06/18 10:43:47;;;;;;;5.93;5.53;;;34.60;21.70;;;;;;10388220;28;20666;-75
2021/06/18 10:49:11;;;;;;;7.20;5.30;;;34.70;22.10;;;;;;10384605;28;20232;-76
2021/06/18 10:54:26;;;;;;;5.57;5.17;;;34.90;22.00;;;;;;10384695;28;20225;-76
2021/06/18 10:59:33;;;;;;;5.67;5.30;;;35.00;20.50;;;;;;10384635;28;20236;-75
2021/06/18 11:04:37;;;;;;;5.63;5.23;;;34.90;20.10;;;;;;10389665;28;20246;-76
2021/06/18 11:09:46;;;;;;;5.07;4.67;;;34.80;20.00;;;;;;10384062;28;20233;-77
2021/06/18 11:14:49;;;;;;;4.93;4.63;;;34.70;18.70;;;;;;10380755;28;20233;-76
2021/06/18 11:19:53;;;;;;;5.27;4.77;;;34.70;19.70;;;;;;10381235;28;20586;-77
2021/06/18 11:24:57;;;;;;;5.03;4.63;;;34.70;19.60;;;;;;10379412;28;20229;-76
2021/06/18 11:30:26;;;;;;;4.77;4.37;;;34.70;19.20;;;;;;10381714;28;20222;-76
2021/06/18 11:35:40;;;;;;;4.63;4.33;;;34.70;19.20;;;;;;10377620;28;20702;-76
2021/06/18 11:40:46;;;;;;;4.17;3.97;;;34.80;18.00;;;;;;10382186;28;20238;-74
2021/06/18 11:45:50;;;;;;;5.07;4.03;;;34.90;17.40;;;;;;10377983;28;20243;-76
2021/06/18 11:50:54;;;;;;;4.03;3.80;;;35.00;18.10;;;;;;10384091;28;20291;-80
2021/06/18 11:56:02;;;;;;;4.50;4.20;;;35.20;18.10;;;;;;10392258;28;20227;-80
2021/06/18 12:01:11;;;;;;;4.53;4.23;;;35.40;16.80;;;;;;10387074;28;21703;-80
2021/06/18 12:06:17;;;;;;;4.47;4.20;;;35.40;16.20;;;;;;10386639;28;20288;-74
2021/06/18 12:11:22;;;;;;;4.60;4.23;;;35.50;16.50;;;;;;10370372;28;20583;-74
2021/06/18 12:16:27;;;;;;;4.43;4.13;;;35.50;16.60;;;;;;10388443;28;20242;-80
2021/06/18 12:21:31;;;;;;;4.70;4.30;;;35.70;16.60;;;;;;10388734;28;20308;-79
2021/06/18 12:26:37;;;;;;;4.93;4.53;;;35.80;16.70;;;;;;10390707;28;20602;-80
2021/06/18 12:31:40;;;;;;;4.60;4.30;;;35.90;16.40;;;;;;10391816;28;20591;-73
2021/06/18 12:36:43;;;;;;;4.97;4.67;;;35.90;16.30;;;;;;10377589;28;20233;-73
2021/06/18 12:41:51;;;;;;;5.03;4.57;;;35.90;16.50;;;;;;10388224;28;20325;-73
2021/06/18 12:46:58;;;;;;;4.67;4.37;;;35.90;15.20;;;;;;10385769;28;20238;-74
2021/06/18 12:52:15;;;;;;;4.70;4.40;;;35.90;14.90;;;;;;10390176;28;20234;-75
2021/06/18 12:57:28;;;;;;;4.40;4.10;;;35.90;15.30;;;;;;10390047;28;20222;-76
2021/06/18 13:02:36;;;;;;;4.13;3.93;;;36.00;14.90;;;;;;10388749;28;20650;-75
2021/06/18 13:07:39;;;;;;;4.60;4.20;;;36.00;14.70;;;;;;10388490;28;20759;-75
2021/06/18 13:12:54;;;;;;;5.00;4.60;;;36.00;15.40;;;;;;10383633;28;21045;-75
2021/06/18 13:18:00;;;;;;;4.80;4.50;;;36.00;15.30;;;;;;10389266;28;20231;-76
2021/06/18 13:23:19;;;;;;;4.60;4.30;;;36.00;15.20;;;;;;10387135;28;20224;-75
2021/06/18 13:28:41;;;;;;;4.70;4.40;;;36.00;15.50;;;;;;10393873;28;20922;-75
2021/06/18 13:33:47;;;;;;;4.80;4.40;;;36.10;15.00;;;;;;10391338;28;20322;-79
2021/06/18 13:38:51;;;;;;;4.70;4.30;;;36.10;15.10;;;;;;10391586;28;20231;-76
2021/06/18 13:43:55;;;;;;;5.23;4.70;;;36.20;15.10;;;;;;10380172;28;20242;-79
2021/06/18 13:48:59;;;;;;;5.03;4.63;;;36.30;14.60;;;;;;10391224;28;21080;-79
2021/06/18 13:54:02;;;;;;;4.73;4.43;;;36.40;15.10;;;;;;10388942;28;20241;-75
2021/06/18 13:59:07;;;;;;;5.13;4.80;;;36.40;14.20;;;;;;10382198;28;20234;-81
2021/06/18 14:04:11;;;;;;;5.13;4.80;;;36.50;14.30;;;;;;10391669;28;20236;-76
2021/06/18 14:09:16;;;;;;;5.47;5.07;;;36.50;13.90;;;;;;10389914;28;20240;-74
2021/06/18 14:14:22;;;;;;;5.03;4.67;;;36.50;13.90;;;;;;10377623;28;20713;-74
2021/06/18 14:19:25;;;;;;;5.23;4.70;;;36.50;13.90;;;;;;10376356;28;20263;-74
2021/06/18 14:24:28;;;;;;;5.33;4.93;;;36.40;14.60;;;;;;10381015;28;20611;-74
2021/06/18 14:29:33;;;;;;;5.67;5.17;;;36.40;15.50;;;;;;10382255;28;20610;-73
2021/06/18 14:34:37;;;;;;;5.20;4.90;;;36.40;14.80;;;;;;10379384;28;20677;-74
2021/06/18 14:39:40;;;;;;;5.40;5.00;;;36.50;15.10;;;;;;10379578;28;20236;-73
2021/06/18 14:44:45;;;;;;;5.70;5.30;;;36.50;14.80;;;;;;10380680;28;20237;-74
2021/06/18 14:49:48;;;;;;;5.47;5.17;;;36.50;14.40;;;;;;10379961;28;20225;-74
2021/06/18 14:54:52;;;;;;;5.33;4.93;;;36.50;14.70;;;;;;10375934;28;20667;-74
2021/06/18 14:59:56;;;;;;;5.50;5.07;;;36.50;14.60;;;;;;10376882;28;20236;-74
2021/06/18 15:04:59;;;;;;;5.70;5.20;;;36.60;14.50;;;;;;10389361;28;20587;-80
2021/06/18 15:10:02;;;;;;;5.43;5.03;;;36.60;14.70;;;;;;10393713;28;20590;-79
2021/06/18 15:15:09;;;;;;;6.30;5.70;;;36.60;14.70;;;;;;10390393;28;20243;-80
2021/06/18 15:20:12;;;;;;;6.30;5.80;;;36.60;14.20;;;;;;10383868;28;20231;-80
2021/06/18 15:25:16;;;;;;;6.17;5.60;;;36.70;14.70;;;;;;10395962;28;20233;-80
2021/06/18 15:30:23;;;;;;;6.70;6.20;;;36.70;14.60;;;;;;10388213;28;20237;-80
2021/06/18 15:35:26;;;;;;;6.50;6.10;;;36.70;14.00;;;;;;10393392;28;20242;-80
2021/06/18 15:40:29;;;;;;;6.10;5.50;;;36.80;14.60;;;;;;10388778;28;20308;-81
2021/06/18 15:45:34;;;;;;;5.97;5.53;;;36.80;14.60;;;;;;10392279;28;20245;-81
2021/06/18 15:50:40;;;;;;;5.90;5.50;;;36.80;14.20;;;;;;10383825;28;20226;-77
2021/06/18 15:55:46;;;;;;;6.00;5.50;;;36.80;14.60;;;;;;10379106;28;20350;-77
2021/06/18 16:00:51;;;;;;;7.50;5.87;;;36.80;14.50;;;;;;10377355;28;20256;-77
2021/06/18 16:05:54;;;;;;;8.20;7.50;;;36.80;14.50;;;;;;10375680;28;20256;-76
2021/06/18 16:10:59;;;;;;;6.57;6.13;;;36.80;14.60;;;;;;10387070;28;20320;-76
2021/06/18 16:16:05;;;;;;;7.17;6.67;;;36.80;14.60;;;;;;10390708;28;20242;-76
2021/06/18 16:21:08;;;;;;;6.40;6.00;;;36.70;14.50;;;;;;10390978;28;20746;-77
2021/06/18 16:26:11;;;;;;;6.57;6.10;;;36.70;14.80;;;;;;10381224;28;20229;-76
2021/06/18 16:31:16;;;;;;;5.73;5.33;;;36.60;14.50;;;;;;10381909;28;20242;-76
2021/06/18 16:36:19;;;;;;;5.80;5.40;;;36.60;14.30;;;;;;10384908;28;20232;-76
2021/06/18 16:41:23;;;;;;;5.37;4.97;;;36.60;14.50;;;;;;10387868;28;20245;-76
2021/06/18 16:46:27;;;;;;;5.40;5.00;;;36.60;14.40;;;;;;10387316;28;20237;-76
2021/06/18 16:51:31;;;;;;;5.40;5.00;;;36.60;14.20;;;;;;10381806;28;20236;-76
2021/06/18 16:56:34;;;;;;;6.33;4.77;;;36.60;14.70;;;;;;10392026;28;20229;-85
2021/06/18 17:01:39;;;;;;;5.37;4.97;;;36.60;14.90;;;;;;10397480;28;20620;-76
2021/06/18 17:06:43;;;;;;;7.33;6.63;;;36.60;14.90;;;;;;10385068;28;20229;-76
2021/06/18 17:11:47;;;;;;;6.30;5.80;;;36.60;14.90;;;;;;10380091;28;20232;-76
2021/06/18 17:16:51;;;;;;;5.77;5.37;;;36.60;15.00;;;;;;10377776;28;20735;-73
2021/06/18 17:21:55;;;;;;;5.33;4.97;;;36.60;15.20;;;;;;10383416;28;20236;-73
2021/06/18 17:26:58;;;;;;;6.00;5.50;;;36.60;15.20;;;;;;10382405;28;20900;-73
2021/06/18 17:32:03;;;;;;;5.07;4.67;;;36.60;15.00;;;;;;10371381;28;20233;-73
2021/06/18 17:37:06;;;;;;;5.17;4.70;;;36.60;15.60;;;;;;10382587;28;20231;-74
2021/06/18 17:42:14;;;;;;;5.17;4.87;;;36.50;15.20;;;;;;10381893;28;20277;-74
2021/06/18 17:47:18;;;;;;;9.30;8.40;;;36.60;15.20;;;;;;10379821;28;20746;-74
2021/06/18 17:52:21;;;;;;;6.50;5.90;;;36.50;13.90;;;;;;10380236;28;20248;-73
2021/06/18 17:57:25;;;;;;;6.77;5.23;;;36.50;13.90;;;;;;10384170;28;20260;-73
2021/06/18 18:02:29;;;;;;;5.63;5.23;;;36.40;14.00;;;;;;10376759;28;20247;-73
2021/06/18 18:07:33;;;;;;;6.10;5.50;;;36.30;15.10;;;;;;10382775;28;20228;-73
2021/06/18 18:12:36;;;;;;;5.37;4.93;;;36.20;15.30;;;;;;10390152;28;20243;-77
2021/06/18 18:17:41;;;;;;;5.47;5.00;;;36.10;15.50;;;;;;10387221;28;20227;-77
2021/06/18 18:22:44;;;;;;;5.40;5.10;;;36.00;15.60;;;;;;10380546;28;20234;-76
2021/06/18 18:27:47;;;;;;;5.30;4.90;;;35.90;15.70;;;;;;10384549;28;20267;-76
2021/06/18 18:32:52;;;;;;;6.30;5.73;;;35.70;15.60;;;;;;10377098;28;20243;-84
2021/06/18 18:37:57;;;;;;;7.57;6.07;;;35.60;16.40;;;;;;10383916;28;20228;-84
2021/06/18 18:43:00;;;;;;;6.40;5.90;;;35.30;16.40;;;;;;10383453;28;20287;-84
2021/06/18 18:48:07;;;;;;;5.80;5.33;;;35.20;17.00;;;;;;10388278;28;20241;-84
2021/06/18 18:53:10;;;;;;;15.87;14.43;;;35.00;17.40;;;;;;10397658;28;20256;-84
2021/06/18 18:58:14;;;;;;;10.10;9.23;;;34.80;17.40;;;;;;10389861;28;20639;-77
2021/06/18 19:03:19;;;;;;;9.53;7.87;;;34.60;17.60;;;;;;10385803;28;20232;-76
2021/06/18 19:08:23;;;;;;;9.07;8.37;;;34.40;18.10;;;;;;10382217;28;20300;-76
2021/06/18 19:13:26;;;;;;;6.73;6.33;;;34.10;18.00;;;;;;10381070;28;20331;-76
2021/06/18 19:18:31;;;;;;;6.63;5.97;;;34.00;18.20;;;;;;10378589;28;20252;-76
2021/06/18 19:23:35;;;;;;;6.47;6.03;;;33.80;18.80;;;;;;10384087;28;20358;-76
2021/06/18 19:28:40;;;;;;;6.10;5.70;;;33.70;18.60;;;;;;10382454;28;20237;-76
2021/06/18 19:33:45;;;;;;;7.63;5.63;;;33.50;18.90;;;;;;10378994;28;20345;-77
2021/06/18 19:38:48;;;;;;;5.67;5.27;;;33.40;19.20;;;;;;10367355;28;20218;-74
2021/06/18 19:43:51;;;;;;;5.10;4.77;;;33.20;19.20;;;;;;10389854;28;20234;-77
2021/06/18 19:48:56;;;;;;;6.17;5.30;;;33.00;19.20;;;;;;10388203;28;20726;-77
2021/06/18 19:54:00;;;;;;;5.53;5.03;;;32.80;19.60;;;;;;10385578;28;20266;-83
2021/06/18 19:59:04;;;;;;;5.87;5.47;;;32.60;20.00;;;;;;10384765;28;20741;-76
2021/06/18 20:04:09;;;;;;;5.73;5.23;;;32.30;19.80;;;;;;10387210;28;20321;-84
2021/06/18 20:09:13;;;;;;;6.73;6.10;;;32.20;20.50;;;;;;10390263;28;20593;-84
2021/06/18 20:14:16;;;;;;;6.77;6.30;;;32.10;20.30;;;;;;10383358;28;20236;-83
2021/06/18 20:19:21;;;;;;;6.10;5.60;;;31.90;21.00;;;;;;10388803;28;20252;-76
2021/06/18 20:24:24;;;;;;;5.80;5.40;;;31.80;20.90;;;;;;10375465;28;20243;-77
2021/06/18 20:29:27;;;;;;;5.77;5.33;;;31.70;20.40;;;;;;10377241;28;20661;-77
2021/06/18 20:34:36;;;;;;;6.17;5.77;;;31.50;20.70;;;;;;10382933;28;20241;-76
2021/06/18 20:39:40;;;;;;;6.00;5.60;;;31.20;21.10;;;;;;10379611;28;20236;-76
2021/06/18 20:44:43;;;;;;;5.70;5.30;;;31.10;21.30;;;;;;10375874;28;20245;-76
2021/06/18 20:49:48;;;;;;;6.63;6.13;;;30.80;21.50;;;;;;10375166;28;20227;-76
2021/06/18 20:54:51;;;;;;;6.23;5.70;;;30.50;21.70;;;;;;10387764;28;20288;-77
2021/06/18 20:59:54;;;;;;;6.70;6.20;;;30.30;21.60;;;;;;10378159;28;20234;-77
2021/06/18 21:04:59;;;;;;;6.73;6.23;;;30.10;21.90;;;;;;10385912;28;20235;-74
2021/06/18 21:10:04;;;;;;;6.33;5.90;;;29.90;22.30;;;;;;10386256;28;20222;-77
2021/06/18 21:15:09;;;;;;;6.57;6.07;;;29.80;22.30;;;;;;10392877;28;20624;-76
2021/06/18 21:20:16;;;;;;;6.47;5.87;;;29.70;22.80;;;;;;10386934;28;20667;-84
2021/06/18 21:25:20;;;;;;;6.17;5.53;;;29.60;23.10;;;;;;10378487;28;21977;-76
2021/06/18 21:30:25;;;;;;;6.07;5.57;;;29.50;22.70;;;;;;10377885;28;20237;-76
2021/06/18 21:35:29;;;;;;;6.60;6.10;;;29.40;23.10;;;;;;10372081;28;20239;-77
2021/06/18 21:40:33;;;;;;;6.37;5.87;;;29.40;23.40;;;;;;10376497;28;21017;-77
2021/06/18 21:45:37;;;;;;;6.30;5.70;;;29.30;23.00;;;;;;10374956;28;20284;-77
2021/06/18 21:50:41;;;;;;;6.87;6.37;;;29.10;23.30;;;;;;10383766;28;20280;-76
2021/06/18 21:55:44;;;;;;;7.00;6.40;;;28.90;23.70;;;;;;10376383;28;20317;-77
2021/06/18 22:00:48;;;;;;;7.07;6.00;;;28.60;23.50;;;;;;10374438;28;20227;-77
2021/06/18 22:05:52;;;;;;;6.90;6.30;;;28.40;23.80;;;;;;10371900;28;20230;-77
2021/06/18 22:10:56;;;;;;;7.23;6.67;;;28.20;24.40;;;;;;10369273;28;20761;-77
2021/06/18 22:15:59;;;;;;;6.80;6.30;;;28.00;24.20;;;;;;10386744;28;20706;-83
2021/06/18 22:21:04;;;;;;;6.63;6.13;;;27.70;24.40;;;;;;10388056;28;20236;-83
2021/06/18 22:26:07;;;;;;;6.80;5.93;;;27.60;25.10;;;;;;10383830;28;20230;-74
2021/06/18 22:31:13;;;;;;;7.33;6.63;;;27.50;25.10;;;;;;10377774;28;20236;-83
2021/06/18 22:36:18;;;;;;;6.93;6.33;;;27.40;25.90;;;;;;10383265;28;20267;-77
2021/06/18 22:41:22;;;;;;;6.60;6.20;;;27.20;25.80;;;;;;10393275;28;20237;-84
2021/06/18 22:46:28;;;;;;;7.40;6.80;;;27.00;26.00;;;;;;10385140;28;20651;-84
2021/06/18 22:51:33;;;;;;;7.57;6.80;;;26.80;26.00;;;;;;10396977;28;20229;-84
2021/06/18 22:56:36;;;;;;;7.40;6.90;;;26.60;26.70;;;;;;10391167;28;20732;-83
2021/06/18 23:01:40;;;;;;;8.47;6.07;;;26.30;26.40;;;;;;10398518;28;20748;-83
2021/06/18 23:06:45;;;;;;;7.20;6.70;;;26.00;27.00;;;;;;10392362;28;20253;-84
2021/06/18 23:11:52;;;;;;;7.40;6.17;;;25.90;27.70;;;;;;10390941;28;20232;-83
2021/06/18 23:16:55;;;;;;;6.47;5.70;;;25.80;28.30;;;;;;10390749;28;20222;-84
2021/06/18 23:22:00;;;;;;;6.60;6.10;;;25.90;27.40;;;;;;10395324;28;20237;-84
2021/06/18 23:27:04;;;;;;;6.53;5.97;;;25.90;27.80;;;;;;10392511;28;20224;-84
2021/06/18 23:32:09;;;;;;;6.63;6.13;;;26.00;27.80;;;;;;10388811;28;20701;-84
2021/06/18 23:37:14;;;;;;;6.00;5.60;;;26.00;27.80;;;;;;10395248;28;20773;-84
2021/06/18 23:42:18;;;;;;;5.90;5.50;;;26.10;27.80;;;;;;10395424;28;20253;-84
2021/06/18 23:47:24;;;;;;;6.73;6.13;;;26.20;27.40;;;;;;10399119;28;20284;-84
2021/06/18 23:52:28;;;;;;;6.80;6.37;;;26.20;27.60;;;;;;10383571;28;20233;-83
2021/06/18 23:57:31;;;;;;;6.37;5.90;;;26.20;27.90;;;;;;10398305;28;20225;-84
